Time;durP1;ratioP1;P1;durP2;ratioP2;P2;SDS_P1;SDS_P2;PMS_P1;PMS_P2;Temp;Humidity;BMP_temperature;BMP_pressure;BME280_temperature;BME280_humidity;BME280_pressure;Samples;Min_cycle;Max_cycle;Signal;HPM_P1;HPM_P2
2022/03/18 00:02:23;;;;;;;;;;;7.20;99.90;;;6.00;100.00;96961.75;10523702;28;1926;-74
2022/03/18 00:07:25;;;;;;;;;;;7.10;99.90;;;5.94;100.00;96968.75;10506535;28;2483;-74
2022/03/18 00:12:29;;;;;;;;;;;7.10;99.90;;;5.92;100.00;96971.66;10497703;28;2194;-74
2022/03/18 00:17:32;;;;;;;;;;;7.10;99.90;;;5.81;100.00;96972.31;10517478;28;1917;-74
2022/03/18 00:22:35;;;;;;;;;;;7.00;99.90;;;5.72;100.00;96973.56;10519853;28;1939;-74
2022/03/18 00:27:38;;;;;;;;;;;6.90;99.90;;;5.59;100.00;96974.44;10501740;28;2077;-75
2022/03/18 00:32:42;;;;;;;;;;;6.80;99.90;;;5.49;100.00;96970.63;10525398;28;2323;-75
2022/03/18 00:38:06;;;;;;;;;;;6.80;99.90;;;5.41;100.00;96974.34;10521010;28;1845;-74
2022/03/18 00:43:09;;;;;;;;;;;6.70;99.90;;;5.34;100.00;96970.88;10521695;28;1843;-74
2022/03/18 00:53:34;;;;;;;;;;;6.60;99.90;;;5.21;100.00;96978.91;10525395;28;1981;-74
2022/03/18 00:58:37;;;;;;;;;;;6.50;99.90;;;5.13;100.00;96979.97;10498623;28;1828;-74
2022/03/18 01:03:40;;;;;;;;;;;6.50;99.90;;;5.12;100.00;96975.66;10504627;28;1757;-74
2022/03/18 01:08:43;;;;;;;;;;;6.30;99.90;;;5.03;100.00;96977.75;10509429;28;1901;-74
2022/03/18 01:13:46;;;;;;;;;;;6.30;99.90;;;5.01;100.00;96978.97;10498509;28;1890;-74
2022/03/18 01:18:50;;;;;;;;;;;6.20;99.90;;;4.96;100.00;96978.78;10505232;28;1916;-74
2022/03/18 01:23:53;;;;;;;;;;;6.20;99.90;;;4.92;100.00;96985.56;10527424;28;1906;-73
2022/03/18 01:28:58;;;;;;;;;;;6.20;99.90;;;4.94;100.00;96986.16;10519336;28;1865;-73
2022/03/18 01:34:01;;;;;;;;;;;6.10;99.90;;;4.93;100.00;96979.22;10526403;28;1918;-74
2022/03/18 01:39:05;;;;;;;;;;;6.10;99.90;;;4.95;100.00;96983.28;10521061;28;1991;-73
2022/03/18 01:44:08;;;;;;;;;;;6.10;99.90;;;4.96;100.00;96986.78;10519265;28;2401;-74
2022/03/18 01:49:13;;;;;;;;;;;6.10;99.90;;;4.98;100.00;96993.53;10523209;28;1951;-73
2022/03/18 01:59:37;;;;;;;;;;;6.10;99.90;;;5.06;100.00;96990.66;10530094;28;1840;-75
2022/03/18 02:04:41;;;;;;;;;;;6.10;99.90;;;5.07;100.00;96994.13;10531119;28;1879;-74
2022/03/18 02:09:45;;;;;;;;;;;6.20;99.90;;;5.05;100.00;96998.84;10527403;28;1820;-74
2022/03/18 02:14:50;;;;;;;;;;;6.10;99.90;;;5.06;100.00;97000.50;10550353;28;1936;-74
2022/03/18 02:19:53;;;;;;;;;;;6.10;99.90;;;5.02;100.00;96999.25;10524980;28;1895;-75
2022/03/18 02:24:56;;;;;;;;;;;6.20;99.90;;;5.02;100.00;96997.41;10548454;28;1932;-74
2022/03/18 02:30:00;;;;;;;;;;;6.10;99.90;;;5.02;100.00;97005.41;10532192;28;1973;-73
2022/03/18 02:35:03;;;;;;;;;;;6.10;99.90;;;5.03;100.00;97000.94;10545470;28;2055;-74
2022/03/18 02:40:06;;;;;;;;;;;6.20;99.90;;;5.03;100.00;97014.25;10524478;28;1969;-74
2022/03/18 02:45:10;;;;;;;;;;;6.10;99.90;;;5.05;100.00;97006.84;10519661;28;1962;-75
2022/03/18 02:50:15;;;;;;;;;;;6.10;99.90;;;5.00;100.00;97010.13;10536999;28;1923;-74
2022/03/18 02:55:18;;;;;;;;;;;6.10;99.90;;;4.98;100.00;97006.06;10528101;28;1997;-74
2022/03/18 03:00:25;;;;;;;;;;;6.10;99.90;;;4.87;100.00;97010.97;10545583;28;1930;-73
2022/03/18 03:10:48;;;;;;;;;;;5.90;99.90;;;4.77;100.00;97007.09;10528762;28;1806;-72
2022/03/18 03:15:51;;;;;;;;;;;5.90;99.90;;;4.68;100.00;97013.66;10531200;28;2007;-72
2022/03/18 03:20:54;;;;;;;;;;;5.80;99.90;;;4.63;100.00;97010.78;10543271;28;1934;-73
2022/03/18 03:25:58;;;;;;;;;;;5.80;99.90;;;4.58;100.00;97019.38;10513555;28;1932;-74
2022/03/18 03:31:01;;;;;;;;;;;5.80;99.90;;;4.61;100.00;97024.31;10525156;28;1896;-74
2022/03/18 03:36:04;;;;;;;;;;;5.70;99.90;;;4.66;100.00;97032.53;10527493;28;1918;-73
2022/03/18 03:41:07;;;;;;;;;;;5.70;99.90;;;4.72;100.00;97030.88;10509708;28;1856;-73
2022/03/18 03:46:10;;;;;;;;;;;5.80;99.90;;;4.76;100.00;97038.22;10524737;28;1819;-73
2022/03/18 03:51:13;;;;;;;;;;;5.80;99.90;;;4.74;100.00;97048.28;10524951;28;2105;-74
2022/03/18 03:56:16;;;;;;;;;;;5.90;99.90;;;4.73;100.00;97048.50;10516888;28;1892;-75
2022/03/18 04:01:19;;;;;;;;;;;5.80;99.90;;;4.61;100.00;97057.09;10503780;28;1977;-74
2022/03/18 04:06:22;;;;;;;;;;;5.70;99.90;;;4.59;100.00;97058.34;10523716;28;1894;-74
2022/03/18 04:11:26;;;;;;;;;;;5.70;99.90;;;4.55;100.00;97067.75;10525831;28;1902;-74
2022/03/18 04:16:30;;;;;;;;;;;5.60;99.90;;;4.54;100.00;97074.09;10510028;28;1983;-74
2022/03/18 04:21:34;;;;;;;;;;;5.60;99.90;;;4.54;100.00;97082.91;10520120;28;1898;-74
2022/03/18 04:26:37;;;;;;;;;;;5.60;99.90;;;4.60;100.00;97092.75;10521810;28;1843;-74
2022/03/18 04:31:40;;;;;;;;;;;5.60;99.90;;;4.55;100.00;97091.72;10540035;28;1860;-74
2022/03/18 04:36:45;;;;;;;;;;;5.60;99.90;;;4.53;100.00;97097.25;10536035;28;2283;-74
2022/03/18 04:41:49;;;;;;;;;;;5.50;99.90;;;4.56;100.00;97109.31;10505212;28;1951;-74
2022/03/18 04:46:52;;;;;;;;;;;5.70;99.90;;;4.51;100.00;97109.91;10506601;28;1773;-74
2022/03/18 04:51:56;;;;;;;;;;;5.50;99.90;;;4.47;100.00;97110.56;10521746;28;1460;-74
2022/03/18 04:57:19;;;;;;;;;;;5.50;99.90;;;4.54;100.00;97116.72;10520303;28;1961;-72
2022/03/18 05:02:22;;;;;;;;;;;5.50;99.90;;;4.58;100.00;97129.44;10536715;28;1471;-73
2022/03/18 05:07:26;;;;;;;;;;;5.60;99.90;;;4.66;100.00;97123.06;10518433;28;1850;-73
2022/03/18 05:12:28;;;;;;;;;;;5.70;99.90;;;4.64;100.00;97125.09;10532217;28;1725;-75
2022/03/18 05:17:31;;;;;;;;;;;5.60;99.90;;;4.71;100.00;97133.94;10513044;28;2017;-74
2022/03/18 05:22:36;;;;;;;;;;;5.70;99.90;;;4.74;100.00;97136.19;10503894;28;1942;-74
2022/03/18 05:27:40;;;;;;;;;;;5.70;99.90;;;4.72;100.00;97130.25;10545825;22;2360;-69
2022/03/18 05:32:43;;;;;;;;;;;5.70;99.90;;;4.74;100.00;97136.19;10563172;28;1852;-69
2022/03/18 05:37:47;;;;;;;;;;;5.80;99.90;;;4.86;100.00;97149.72;10560843;28;1922;-69
2022/03/18 05:42:50;;;;;;;;;;;5.80;99.90;;;4.85;100.00;97154.25;10525955;28;1866;-68
2022/03/18 05:47:53;;;;;;;;;;;5.80;99.90;;;4.92;100.00;97169.41;10541737;28;2002;-69
2022/03/18 05:52:57;;;;;;;;;;;5.90;99.90;;;4.97;100.00;97172.31;10530829;28;1849;-70
2022/03/18 05:58:00;;;;;;;;;;;6.00;99.90;;;5.07;100.00;97168.19;10544963;28;1972;-70
2022/03/18 06:03:04;;;;;;;;;;;6.00;99.90;;;5.19;100.00;97173.72;10551122;28;1870;-69
2022/03/18 06:13:27;;;;;;;;;;;6.00;99.90;;;4.86;100.00;97187.03;10553686;28;1900;-69
2022/03/18 06:18:30;;;;;;;;;;;5.90;99.90;;;4.96;100.00;97176.78;10531900;28;1906;-69
2022/03/18 06:23:33;;;;;;;;;;;5.80;99.90;;;5.04;100.00;97194.44;10561472;28;1916;-70
2022/03/18 06:28:36;;;;;;;;;;;6.00;99.90;;;5.17;100.00;97186.44;10568103;28;1938;-69
2022/03/18 06:33:43;;;;;;;;;;;6.10;99.90;;;5.50;100.00;97198.94;10551140;28;1942;-69
2022/03/18 06:38:47;;;;;;;;;;;6.20;99.90;;;5.62;100.00;97202.63;10545337;28;1944;-69
2022/03/18 06:43:50;;;;;;;;;;;6.50;99.90;;;5.86;99.08;97204.66;10527218;28;2085;-69
2022/03/18 06:48:53;;;;;;;;;;;6.60;99.90;;;5.78;97.19;97218.19;10546114;28;1864;-68
2022/03/18 06:53:56;;;;;;;;;;;6.70;99.90;;;6.00;96.75;97226.81;10551120;28;1796;-70
2022/03/18 06:59:00;;;;;;;;;;;6.90;99.90;;;6.53;92.77;97225.81;10533351;28;1894;-70
2022/03/18 07:04:03;;;;;;;;;;;7.10;99.90;;;6.42;91.44;97230.78;10531478;28;2007;-69
2022/03/18 07:09:07;;;;;;;;;;;7.30;99.90;;;6.46;89.87;97226.66;10556116;28;1913;-71
2022/03/18 07:14:10;;;;;;;;;;;7.40;99.90;;;6.34;90.70;97239.03;10525713;28;1884;-69
2022/03/18 07:19:15;;;;;;;;;;;7.30;99.90;;;6.26;90.42;97241.13;10545442;28;2087;-68
2022/03/18 07:24:18;;;;;;;;;;;7.30;99.90;;;6.40;88.87;97250.72;10551633;28;1825;-68
2022/03/18 07:29:21;;;;;;;;;;;7.40;99.90;;;6.14;89.74;97255.13;10529659;28;1910;-69
2022/03/18 07:34:24;;;;;;;;;;;7.40;99.90;;;6.37;88.41;97262.66;10543280;28;2071;-69
2022/03/18 07:39:27;;;;;;;;;;;7.30;99.90;;;6.57;85.87;97264.44;10550348;28;2113;-69
2022/03/18 07:44:31;;;;;;;;;;;7.40;99.90;;;6.28;85.75;97261.25;10529478;28;1835;-70
2022/03/18 07:49:33;;;;;;;;;;;7.40;99.90;;;6.53;83.33;97279.25;10535204;28;2026;-70
2022/03/18 07:54:39;;;;;;;;;;;7.60;99.90;;;7.02;81.24;97279.44;10525713;28;2069;-69
2022/03/18 07:59:42;;;;;;;;;;;7.80;99.90;;;6.74;80.31;97282.47;10544720;28;1976;-67
2022/03/18 08:04:45;;;;;;;;;;;8.00;99.90;;;6.92;78.02;97289.75;10545316;28;2050;-67
2022/03/18 08:09:48;;;;;;;;;;;7.90;99.90;;;7.29;76.05;97298.00;10529363;28;1900;-69
2022/03/18 08:14:51;;;;;;;;;;;8.10;99.90;;;7.04;75.19;97300.63;10541096;28;1902;-69
2022/03/18 08:19:54;;;;;;;;;;;8.20;99.90;;;7.12;75.80;97302.22;10566904;28;1991;-69
2022/03/18 08:24:58;;;;;;;;;;;8.20;99.90;;;7.37;75.30;97311.13;10540500;28;1856;-68
2022/03/18 08:30:00;;;;;;;;;;;8.30;99.90;;;7.34;73.38;97310.75;10544941;28;1805;-68
2022/03/18 08:35:03;;;;;;;;;;;8.40;99.90;;;7.48;72.71;97313.09;10552543;28;2080;-67
2022/03/18 08:40:10;;;;;;;;;;;8.60;99.90;;;7.89;70.74;97317.16;10552673;28;1720;-68
2022/03/18 08:45:12;;;;;;;;;;;8.90;99.90;;;8.19;70.15;97324.50;10551855;28;1867;-68
2022/03/18 08:50:15;;;;;;;;;;;8.00;99.90;;;8.30;70.50;97323.78;10532080;28;2026;-71
2022/03/18 08:55:18;;;;;;;;;;;9.10;99.90;;;8.12;70.29;97328.03;10562845;28;1983;-72
2022/03/18 09:00:21;;;;;;;;;;;9.10;99.90;;;8.11;71.26;97334.44;10538710;28;1800;-71
2022/03/18 09:05:24;;;;;;;;;;;9.00;99.90;;;7.81;72.97;97333.47;10555861;28;1859;-72
2022/03/18 09:10:27;;;;;;;;;;;8.90;99.90;;;8.31;72.33;97341.47;10541701;28;1823;-71
2022/03/18 09:15:30;;;;;;;;;;;9.10;99.90;;;8.10;70.01;97351.56;10550863;28;2090;-71
2022/03/18 09:20:34;;;;;;;;;;;;;;;7.87;70.47;97362.03;10557758;28;1862;-68
2022/03/18 09:25:37;;;;;;;;;;;;;;;8.18;69.38;97357.69;10541956;28;1877;-68
2022/03/18 09:30:41;;;;;;;;;;;;;;;8.43;69.30;97358.50;10563364;28;1815;-68
2022/03/18 09:35:45;;;;;;;;;;;;;;;8.90;66.76;97364.19;10552933;28;1963;-68
2022/03/18 09:40:49;;;;;;;;;;;;;;;8.51;67.14;97368.13;10538580;28;1861;-67
2022/03/18 09:46:08;;;;;;;;;;;;;;;8.30;66.67;97366.63;10558357;28;1935;-67
2022/03/18 09:51:33;;;;;;;;;;;;;;;8.34;67.86;97373.22;10552418;28;1793;-67
2022/03/18 09:56:51;;;;;;;;;;;;;;;8.36;67.93;97376.50;10540017;28;2002;-67
2022/03/18 10:01:54;;;;;;;;;;;;;;;8.17;68.53;97382.81;10550811;28;2059;-67
2022/03/18 10:06:58;;;;;;;;;;;;;;;8.22;68.69;97381.13;10549494;28;1877;-67
2022/03/18 10:12:01;;;;;;;;;;;;;;;8.35;67.58;97385.56;10538673;28;1972;-69
2022/03/18 10:17:04;;;;;;;;;;;;;;;8.47;67.39;97391.88;10544196;28;1923;-67
2022/03/18 10:22:09;;;;;;;;;;;;;;;8.59;65.50;97392.78;10541675;28;1963;-70
2022/03/18 10:27:13;;;;;;;;;;;;;;;9.35;63.67;97396.03;10545236;28;1867;-68
2022/03/18 10:32:17;;;;;;;;;;;;;;;9.74;59.13;97383.97;10545459;28;2400;-69
2022/03/18 10:37:21;;;;;;;;;;;;;;;9.89;57.21;97387.03;10535362;28;1915;-69
2022/03/18 10:42:25;;;;;;;;;;;;;;;9.60;55.99;97383.31;10553877;28;1803;-69
2022/03/18 10:47:28;;;;;;;;;;;;;;;9.62;54.05;97388.47;10521699;28;1862;-69
2022/03/18 10:52:31;;;;;;;;;;;;;;;9.55;53.71;97390.44;10531770;28;1783;-70
2022/03/18 10:57:36;;;;;;;;;;;;;;;9.59;55.14;97384.38;10550254;28;2203;-70
2022/03/18 11:02:39;;;;;;;;;;;;;;;9.38;53.26;97390.25;10583238;28;1831;-70
2022/03/18 11:07:42;;;;;;;;;;;10.40;99.90;;;9.38;52.05;97399.09;10589766;28;1874;-69
2022/03/18 11:12:47;;;;;;;;;;;10.40;99.90;;;9.41;51.92;97408.56;10561748;28;1877;-70
2022/03/18 11:17:50;;;;;;;;;;;10.40;99.90;;;9.60;52.27;97418.22;10552815;28;1906;-71
2022/03/18 11:22:53;;;;;;;;;;;10.60;99.90;;;9.15;53.77;97409.69;10570778;28;1789;-70
2022/03/18 11:27:56;;;;;;;;;;;10.30;99.90;;;9.29;53.58;97405.00;10526341;28;1823;-70
2022/03/18 11:32:59;;;;;;;;;;;10.20;99.90;;;9.28;52.84;97406.03;10591714;22;1807;-80
2022/03/18 11:38:02;;;;;;;;;;;10.50;99.90;;;9.40;53.75;97401.56;10529389;28;1926;-79
2022/03/18 11:43:06;;;;;;;;;;;10.40;99.90;;;9.89;51.50;97413.91;10502812;28;1851;-82
2022/03/18 11:48:09;;;;;;;;;;;10.70;99.90;;;9.57;52.30;97405.25;10492108;28;1802;-79
2022/03/18 11:53:12;;;;;;;;;;;10.60;99.90;;;9.78;51.61;97411.16;10512113;28;2021;-79
2022/03/18 11:58:15;;;;;;;;;;;10.70;99.90;;;9.89;51.45;97396.97;10505725;28;1971;-80
2022/03/18 12:03:19;;;;;;;;;;;10.90;99.90;;;10.34;49.54;97393.81;10488055;28;1873;-81
2022/03/18 12:08:22;;;;;;;;;;;11.20;99.90;;;10.16;48.95;97402.75;10508781;28;1963;-81
2022/03/18 12:13:26;;;;;;;;;;;11.40;99.90;;;10.29;48.75;97395.31;10496184;28;1809;-81
2022/03/18 12:18:37;;;;;;;;;;;11.20;99.90;;;10.20;49.61;97402.06;10497940;28;1961;-78
2022/03/18 12:35:46;;;;;;;;;;;11.10;99.90;;;10.09;49.23;97396.66;10482139;22;3866;-76
2022/03/18 12:40:49;;;;;;;;;;;11.10;99.90;;;10.59;49.78;97394.41;10518134;28;1914;-76
2022/03/18 12:45:53;;;;;;;;;;;11.30;99.90;;;10.46;48.34;97386.56;10523341;28;1761;-76
2022/03/18 12:50:56;;;;;;;;;;;11.50;99.90;;;9.96;49.08;97392.31;10500252;28;1777;-75
2022/03/18 12:55:59;;;;;;;;;;;11.20;99.90;;;10.06;49.14;97384.53;10503837;28;1558;-76
2022/03/18 13:01:03;;;;;;;;;;;11.10;99.90;;;9.93;49.68;97395.47;10513794;28;1915;-75
2022/03/18 13:06:06;;;;;;;;;;;10.90;99.90;;;10.07;49.08;97394.22;10499150;28;1853;-77
2022/03/18 13:11:09;;;;;;;;;;;11.00;99.90;;;9.81;49.84;97392.75;10494616;28;1873;-76
2022/03/18 13:16:14;;;;;;;;;;;10.90;99.90;;;9.82;50.21;97380.94;10494057;28;1910;-73
2022/03/18 13:21:17;;;;;;;;;;;10.80;99.90;;;10.04;50.22;97386.59;10501365;28;1879;-76
2022/03/18 13:26:20;;;;;;;;;;;11.00;99.90;;;9.96;50.66;97376.19;10512346;28;1852;-73
2022/03/18 13:36:45;;;;;;;;;;;11.10;99.90;;;9.96;51.14;97393.13;10531847;28;2035;-72
2022/03/18 13:41:48;;;;;;;;;;;11.00;99.90;;;10.03;50.62;97395.72;10517043;28;1831;-73
2022/03/18 13:46:51;;;;;;;;;;;11.10;99.90;;;9.93;50.16;97387.41;10526653;28;1835;-71
2022/03/18 13:51:54;;;;;;;;;;;11.00;99.90;;;10.02;50.52;97380.66;10537442;28;2012;-75
2022/03/18 13:56:57;;;;;;;;;;;11.10;99.90;;;10.02;50.22;97386.03;10522860;28;2204;-73
2022/03/18 14:02:01;;;;;;;;;;;11.10;99.90;;;10.15;49.89;97391.19;10504776;28;2197;-74
2022/03/18 14:07:05;;;;;;;;;;;11.20;99.90;;;10.36;49.98;97394.38;10527909;28;2102;-75
2022/03/18 14:12:18;;;;;;;;;;;11.30;99.90;;;10.27;50.47;97384.00;10503909;28;1848;-75
2022/03/18 14:17:22;;;;;;;;;;;11.30;99.90;;;10.28;49.51;97374.06;10516584;28;2267;-76
2022/03/18 14:22:26;;;;;;;;;;;11.40;99.90;;;10.27;48.88;97388.56;10508943;28;1897;-75
2022/03/18 14:27:29;;;;;;;;;;;11.40;99.90;;;10.18;47.24;97380.00;10513151;28;1805;-75
2022/03/18 14:32:34;;;;;;;;;;;11.30;99.90;;;10.16;46.35;97383.94;10514778;28;1792;-74
2022/03/18 14:37:36;;;;;;;;;;;11.20;99.90;;;10.39;45.45;97385.88;10502565;28;1914;-75
2022/03/18 14:42:40;;;;;;;;;;;11.30;99.90;;;10.49;44.48;97383.41;10504610;28;1620;-73
2022/03/18 14:47:49;;;;;;;;;;;11.50;99.90;;;10.48;44.58;97379.09;10501315;28;1867;-74
2022/03/18 14:52:51;;;;;;;;;;;11.50;99.90;;;10.47;43.19;97382.84;10504949;28;1810;-75
2022/03/18 14:57:56;;;;;;;;;;;11.60;99.90;;;10.38;45.83;97378.88;10522686;28;1922;-74
2022/03/18 15:02:59;;;;;;;;;;;11.50;99.90;;;10.36;45.77;97375.56;10498220;28;1884;-73
2022/03/18 15:08:04;;;;;;;;;;;11.40;99.90;;;10.50;44.08;97383.19;10496615;28;1873;-74
2022/03/18 15:13:10;;;;;;;;;;;11.50;99.90;;;10.32;41.52;97375.25;10519837;28;1795;-74
2022/03/18 15:18:13;;;;;;;;;;;11.40;99.90;;;10.29;40.10;97375.69;10513731;28;1925;-75
2022/03/18 15:23:17;;;;;;;;;;;11.40;99.90;;;10.08;38.75;97385.09;10507001;28;1863;-74
2022/03/18 15:28:20;;;;;;;;;;;11.20;99.90;;;10.12;37.96;97382.78;10501201;28;1875;-75
2022/03/18 15:33:24;;;;;;;;;;;11.20;99.90;;;10.19;39.17;97392.38;10511544;28;1816;-74
2022/03/18 15:38:27;;;;;;;;;;;11.30;99.90;;;10.18;40.22;97396.13;10517110;28;1969;-74
2022/03/18 15:43:31;;;;;;;;;;;11.20;99.90;;;10.05;41.06;97403.53;10500458;28;2212;-75
2022/03/18 15:48:35;;;;;;;;;;;11.10;99.90;;;9.90;42.57;97409.34;10517845;28;1780;-77
2022/03/18 15:53:39;;;;;;;;;;;11.00;99.90;;;9.83;43.17;97409.44;10497595;28;1827;-79
2022/03/18 15:58:43;;;;;;;;;;;10.90;99.90;;;9.72;43.63;97405.66;10546289;28;1949;-80
2022/03/18 16:03:47;;;;;;;;;;;10.80;99.90;;;9.67;44.04;97410.06;10516063;28;1866;-78
2022/03/18 16:08:52;;;;;;;;;;;10.80;99.90;;;9.58;44.67;97414.94;10505472;28;1793;-77
2022/03/18 16:13:56;;;;;;;;;;;10.70;99.90;;;9.58;44.06;97406.91;10511962;28;1888;-76
2022/03/18 16:19:00;;;;;;;;;;;10.70;99.90;;;9.52;43.96;97410.47;10500935;28;1902;-79
2022/03/18 16:24:05;;;;;;;;;;;10.60;99.90;;;9.50;43.14;97412.59;10524656;28;1909;-79
2022/03/18 16:29:10;;;;;;;;;;;10.60;99.90;;;9.44;43.25;97416.19;10525920;28;1825;-80
2022/03/18 16:34:13;;;;;;;;;;;10.50;99.90;;;9.38;42.87;97419.75;10542629;28;1869;-80
2022/03/18 16:39:16;;;;;;;;;;;10.50;99.90;;;9.26;43.25;97424.25;10503742;28;1956;-79
2022/03/18 16:44:20;;;;;;;;;;;10.40;99.90;;;9.18;43.53;97423.50;10506280;28;2042;-78
2022/03/18 16:49:28;;;;;;;;;;;10.30;99.90;;;9.05;44.10;97434.38;10521348;28;2069;-79
2022/03/18 16:54:38;;;;;;;;;;;10.20;99.90;;;8.93;44.69;97445.03;10510156;28;1828;-78
2022/03/18 16:59:41;;;;;;;;;;;10.10;99.90;;;8.81;45.19;97444.13;10516732;28;1905;-79
2022/03/18 17:04:45;;;;;;;;;;;10.00;99.90;;;8.68;46.61;97446.09;10525484;28;1919;-78
2022/03/18 17:09:49;;;;;;;;;;;9.80;99.90;;;8.54;46.74;97448.91;10527044;28;1875;-78
2022/03/18 17:14:52;;;;;;;;;;;9.70;99.90;;;8.39;47.45;97459.13;10511224;28;1934;-78
2022/03/18 17:19:55;;;;;;;;;;;9.60;99.90;;;8.26;48.27;97473.41;10499902;28;2002;-79
2022/03/18 17:24:58;;;;;;;;;;;9.50;99.90;;;8.17;49.05;97473.91;10507711;28;1890;-79
2022/03/18 17:30:02;;;;;;;;;;;9.40;99.90;;;8.06;50.30;97484.25;10517100;28;2881;-79
2022/03/18 17:35:05;;;;;;;;;;;9.30;99.90;;;7.89;50.55;97491.19;10517849;28;1933;-79
2022/03/18 17:40:08;;;;;;;;;;;9.20;99.90;;;7.83;51.51;97502.75;10457248;22;2433;-70
2022/03/18 17:45:11;;;;;;;;;;;9.10;99.90;;;7.73;51.62;97508.53;10443590;28;1847;-73
2022/03/18 17:50:14;;;;;;;;;;;8.90;99.90;;;7.69;51.58;97510.00;10414759;28;1825;-69
2022/03/18 17:55:16;;;;;;;;;;;8.90;99.90;;;7.61;52.84;97520.13;10401175;28;1862;-71
2022/03/18 18:00:20;;;;;;;;;;;8.80;99.90;;;7.50;52.95;97521.59;10412491;28;1902;-71
2022/03/18 18:05:23;;;;;;;;;;;8.70;99.90;;;7.50;52.84;97533.13;10402954;28;1900;-71
2022/03/18 18:10:26;;;;;;;;;;;8.60;99.90;;;7.44;52.70;97535.81;10405908;28;2191;-71
2022/03/18 18:15:29;;;;;;;;;;;8.60;99.90;;;7.39;52.19;97533.78;10406311;28;1916;-73
2022/03/18 18:25:53;;;;;;;;;;;8.50;99.90;;;7.27;51.88;97533.63;10418346;28;2480;-70
2022/03/18 18:30:56;;;;;;;;;;;8.40;99.90;;;7.22;52.23;97535.28;10412097;28;1999;-74
2022/03/18 18:35:59;;;;;;;;;;;8.40;99.90;;;7.10;52.35;97537.75;10409154;28;1898;-71
2022/03/18 18:41:03;;;;;;;;;;;8.50;99.90;;;7.05;53.14;97543.72;10411019;28;1897;-72
2022/03/18 18:46:10;;;;;;;;;;;8.30;99.90;;;7.03;52.65;97543.13;10415675;28;1849;-70
2022/03/18 18:51:15;;;;;;;;;;;8.20;99.90;;;7.03;52.67;97553.81;10394651;28;2274;-71
2022/03/18 18:56:19;;;;;;;;;;;8.10;99.90;;;6.92;54.00;97556.28;10397463;28;2009;-71
2022/03/18 19:01:23;;;;;;;;;;;8.10;99.90;;;6.89;53.33;97557.53;10410117;28;1969;-72
2022/03/18 19:06:27;;;;;;;;;;;8.10;99.90;;;6.80;54.07;97561.41;10422666;28;2310;-72
2022/03/18 19:11:30;;;;;;;;;;;8.00;99.90;;;6.65;54.71;97569.66;10421918;28;2056;-72
2022/03/18 19:16:34;;;;;;;;;;;7.90;99.90;;;6.62;54.64;97567.41;10400865;28;1838;-73
2022/03/18 19:21:37;;;;;;;;;;;7.80;99.90;;;6.55;55.63;97581.75;10392326;28;1907;-71
2022/03/18 19:26:39;;;;;;;;;;;7.80;99.90;;;6.46;56.13;97579.28;10395914;28;2263;-71
2022/03/18 19:37:03;;;;;;;;;;;7.60;99.90;;;6.36;55.85;97586.88;10420162;28;1533;-73
2022/03/18 19:42:06;;;;;;;;;;;7.60;99.90;;;6.33;56.94;97587.28;10417495;28;1965;-73
2022/03/18 19:47:09;;;;;;;;;;;7.50;99.90;;;6.30;56.85;97594.84;10438323;28;1721;-73
2022/03/18 19:52:12;;;;;;;;;;;7.50;99.90;;;6.26;57.35;97594.47;10452839;28;1827;-71
2022/03/18 20:02:35;;;;;;;;;;;7.50;99.90;;;6.18;57.73;97602.66;10415329;28;1894;-72
2022/03/18 20:07:38;;;;;;;;;;;7.40;99.90;;;6.10;58.60;97605.50;10413962;28;1582;-71
2022/03/18 20:12:42;;;;;;;;;;;7.20;99.90;;;6.09;58.32;97603.84;10418052;28;1766;-71
2022/03/18 20:17:45;;;;;;;;;;;7.20;99.90;;;6.02;59.00;97603.81;10410796;28;1778;-71
2022/03/18 20:22:48;;;;;;;;;;;7.20;99.90;;;5.93;60.37;97600.50;10410854;28;1929;-73
2022/03/18 20:27:51;;;;;;;;;;;7.10;99.90;;;5.84;61.08;97611.50;10403509;28;1935;-72
2022/03/18 20:32:54;;;;;;;;;;;7.00;99.90;;;5.76;61.29;97615.19;10407700;28;1935;-72
2022/03/18 20:37:57;;;;;;;;;;;6.90;99.90;;;5.60;62.16;97611.00;10417214;28;1981;-72
2022/03/18 20:43:00;;;;;;;;;;;6.90;99.90;;;5.64;61.55;97622.91;10423937;28;1953;-73
2022/03/18 20:48:03;;;;;;;;;;;6.70;99.90;;;5.58;61.40;97623.69;10419765;28;1887;-70
2022/03/18 20:53:06;;;;;;;;;;;6.80;99.90;;;5.59;61.45;97619.19;10405257;28;1890;-70
2022/03/18 20:58:09;;;;;;;;;;;6.80;99.90;;;5.53;61.88;97625.31;10408722;28;1973;-71
2022/03/18 21:03:12;;;;;;;;;;;6.70;99.90;;;5.53;62.23;97634.13;10414309;28;2021;-71
2022/03/18 21:08:15;;;;;;;;;;;6.80;99.90;;;5.49;62.98;97637.41;10405332;28;1820;-71
2022/03/18 21:13:18;;;;;;;;;;;6.70;99.90;;;5.39;63.73;97640.41;10410715;28;1922;-71
2022/03/18 21:18:22;;;;;;;;;;;6.40;99.90;;;5.34;64.18;97648.16;10400397;28;1887;-72
2022/03/18 21:23:28;;;;;;;;;;;6.40;99.90;;;5.21;64.50;97643.56;10408605;28;2524;-73
2022/03/18 21:33:51;;;;;;;;;;;6.20;99.90;;;5.15;64.17;97645.19;10410131;28;1572;-72
2022/03/18 21:38:55;;;;;;;;;;;6.20;99.90;;;5.04;64.50;97653.69;10400767;28;2112;-72
2022/03/18 21:43:58;;;;;;;;;;;7.20;99.90;;;4.97;64.74;97662.66;10413790;28;2010;-73
2022/03/18 21:49:02;;;;;;;;;;;6.10;99.90;;;4.91;65.43;97655.44;10412483;28;1614;-70
2022/03/18 21:54:06;;;;;;;;;;;6.00;99.90;;;4.78;65.32;97659.63;10416943;28;1776;-71
2022/03/18 21:59:10;;;;;;;;;;;5.90;99.90;;;4.70;65.54;97662.38;10419416;28;1992;-71
2022/03/18 22:04:13;;;;;;;;;;;5.70;99.90;;;4.56;66.18;97663.28;10421575;28;1854;-71
2022/03/18 22:09:16;;;;;;;;;;;5.70;99.90;;;4.45;66.14;97656.59;10410385;28;1527;-71
2022/03/18 22:14:19;;;;;;;;;;;5.50;99.90;;;4.41;66.17;97654.53;10417297;28;1612;-72
2022/03/18 22:19:22;;;;;;;;;;;5.40;99.90;;;4.32;66.60;97643.97;10403316;28;1923;-74
2022/03/18 22:24:25;;;;;;;;;;;5.40;99.90;;;4.31;66.08;97641.50;10417823;28;1941;-72
2022/03/18 22:29:28;;;;;;;;;;;5.40;99.90;;;4.27;66.90;97634.91;10416251;28;1964;-71
2022/03/18 22:34:31;;;;;;;;;;;5.30;99.90;;;4.31;66.69;97639.66;10413555;28;1832;-73
2022/03/18 22:39:35;;;;;;;;;;;5.30;99.90;;;4.29;66.76;97632.88;10413724;28;1985;-72
2022/03/18 22:44:38;;;;;;;;;;;5.30;99.90;;;4.28;66.77;97637.38;10417892;28;1886;-73
2022/03/18 22:49:41;;;;;;;;;;;5.20;99.90;;;4.27;67.45;97630.41;10410360;28;1892;-71
2022/03/18 22:54:44;;;;;;;;;;;5.30;99.90;;;4.20;67.85;97629.53;10415303;28;1853;-72
2022/03/18 22:59:47;;;;;;;;;;;5.20;99.90;;;4.17;68.22;97629.88;10413731;28;2108;-72
2022/03/18 23:04:49;;;;;;;;;;;5.20;99.90;;;4.05;69.49;97615.41;10418883;28;1900;-71
2022/03/18 23:09:56;;;;;;;;;;;5.10;99.90;;;4.06;69.31;97611.72;10408817;28;1909;-71
2022/03/18 23:14:59;;;;;;;;;;;5.10;99.90;;;4.03;69.77;97614.78;10428153;28;1926;-71
2022/03/18 23:20:02;;;;;;;;;;;5.00;99.90;;;3.98;70.00;97618.00;10418952;28;1995;-71
2022/03/18 23:25:05;;;;;;;;;;;5.00;99.90;;;3.99;70.40;97632.94;10414684;28;1872;-70
2022/03/18 23:30:08;;;;;;;;;;;5.00;99.90;;;3.95;70.56;97614.91;10405700;28;1868;-73
2022/03/18 23:35:11;;;;;;;;;;;5.00;99.90;;;3.85;70.69;97609.03;10407531;28;1886;-71
2022/03/18 23:40:15;;;;;;;;;;;4.80;99.90;;;3.78;71.21;97615.09;10459272;22;2505;-73
2022/03/18 23:45:18;;;;;;;;;;;4.70;99.90;;;3.72;72.28;97615.84;10464124;28;1862;-72
2022/03/18 23:50:21;;;;;;;;;;;;;;;3.70;72.80;97623.19;10443230;28;2362;-73
2022/03/18 23:55:24;;;;;;;;;;;;;;;3.70;72.90;97625.03;10432769;28;1956;-73
